Time;durP1;ratioP1;P1;durP2;ratioP2;P2;SDS_P1;SDS_P2;PMS_P1;PMS_P2;Temp;Humidity;BMP_temperature;BMP_pressure;BME280_temperature;BME280_humidity;BME280_pressure;Samples;Min_cycle;Max_cycle;Signal;HPM_P1;HPM_P2
2022/09/24 00:00:45;;;;;;;;;;;13.20;99.90;;;;;;5100416;28;19918;-68
2022/09/24 00:03:11;;;;;;;;;;;13.10;99.90;;;;;;5095826;27;19992;-68
2022/09/24 00:05:38;;;;;;;;;;;12.90;99.90;;;;;;5108130;28;19959;-68
2022/09/24 00:08:05;;;;;;;;;;;12.90;99.90;;;;;;5099126;28;19994;-68
2022/09/24 00:10:30;;;;;;;;;;;12.80;99.90;;;;;;5110751;28;19912;-68
2022/09/24 00:12:56;;;;;;;;;;;12.90;99.90;;;;;;5089676;28;20556;-68
2022/09/24 00:15:21;;;;;;;;;;;12.90;99.90;;;;;;5091184;28;19907;-68
2022/09/24 00:17:47;;;;;;;;;;;13.00;99.90;;;;;;5108104;28;19916;-68
2022/09/24 00:20:12;;;;;;;;;;;13.00;99.90;;;;;;5101747;28;20639;-68
2022/09/24 00:22:38;;;;;;;;;;;13.10;99.90;;;;;;5109969;28;19957;-68
2022/09/24 00:27:47;;;;;;;;;;;13.30;99.90;;;;;;5102658;28;20003;-67
2022/09/24 00:30:13;;;;;;;;;;;13.30;99.90;;;;;;5107752;28;19955;-68
2022/09/24 00:32:38;;;;;;;;;;;13.10;99.90;;;;;;5107512;28;20286;-68
2022/09/24 00:35:05;;;;;;;;;;;13.10;99.90;;;;;;5112879;27;19911;-68
2022/09/24 00:37:31;;;;;;;;;;;13.00;99.90;;;;;;5105192;28;19919;-68
2022/09/24 00:39:56;;;;;;;;;;;12.90;99.90;;;;;;5111247;27;19912;-68
2022/09/24 00:42:22;;;;;;;;;;;12.90;99.90;;;;;;5115591;27;20739;-68
2022/09/24 00:44:51;;;;;;;;;;;12.80;99.90;;;;;;5092729;28;19908;-68
2022/09/24 00:47:26;;;;;;;;;;;12.70;99.90;;;;;;5105328;28;19923;-68
2022/09/24 00:49:52;;;;;;;;;;;12.90;99.90;;;;;;5117102;27;19911;-69
2022/09/24 00:52:18;;;;;;;;;;;13.00;99.90;;;;;;5125994;27;19915;-68
2022/09/24 00:54:44;;;;;;;;;;;13.00;99.90;;;;;;5116569;27;19930;-68
2022/09/24 00:57:10;;;;;;;;;;;13.10;99.90;;;;;;5108853;27;19908;-68
2022/09/24 00:59:36;;;;;;;;;;;13.00;99.90;;;;;;5106981;27;20357;-68
2022/09/24 01:02:02;;;;;;;;;;;13.00;99.90;;;;;;5101309;28;19959;-68
2022/09/24 01:04:27;;;;;;;;;;;12.90;99.90;;;;;;5111440;27;19912;-68
2022/09/24 01:06:53;;;;;;;;;;;12.90;99.90;;;;;;5114529;27;20425;-68
2022/09/24 01:09:19;;;;;;;;;;;13.10;99.90;;;;;;5114692;27;19912;-68
2022/09/24 01:12:03;;;;;;;;;;;13.20;99.90;;;;;;5093754;28;19922;-68
2022/09/24 01:14:39;;;;;;;;;;;13.30;99.90;;;;;;5093093;28;19999;-68
2022/09/24 01:17:19;;;;;;;;;;;13.10;99.90;;;;;;5111191;28;19961;-69
2022/09/24 01:20:07;;;;;;;;;;;13.00;99.90;;;;;;5111655;27;20301;-68
2022/09/24 01:22:41;;;;;;;;;;;12.90;99.90;;;;;;5116977;27;19915;-68
2022/09/24 01:25:10;;;;;;;;;;;12.90;99.90;;;;;;5113977;27;19923;-69
2022/09/24 01:27:37;;;;;;;;;;;12.90;99.90;;;;;;5092117;28;19915;-69
2022/09/24 01:30:06;;;;;;;;;;;12.80;99.90;;;;;;5094134;28;19908;-69
2022/09/24 01:32:40;;;;;;;;;;;12.80;99.90;;;;;;5112060;28;19908;-69
2022/09/24 01:35:12;;;;;;;;;;;12.90;99.90;;;;;;5109767;28;20700;-68
2022/09/24 01:37:40;;;;;;;;;;;13.00;99.90;;;;;;5118507;27;19918;-68
2022/09/24 01:40:06;;;;;;;;;;;13.00;99.90;;;;;;5117138;27;19911;-68
2022/09/24 01:42:32;;;;;;;;;;;13.00;99.90;;;;;;5115102;28;19924;-69
2022/09/24 01:45:00;;;;;;;;;;;12.90;99.90;;;;;;5112862;27;20349;-69
2022/09/24 01:47:31;;;;;;;;;;;12.90;99.90;;;;;;5107564;27;19908;-68
2022/09/24 01:49:56;;;;;;;;;;;12.90;99.90;;;;;;5112197;27;19908;-68
2022/09/24 01:52:25;;;;;;;;;;;13.00;99.90;;;;;;5107494;28;19922;-69
2022/09/24 01:54:51;;;;;;;;;;;13.00;99.90;;;;;;5096972;28;20006;-69
2022/09/24 01:57:24;;;;;;;;;;;12.90;99.90;;;;;;5115222;27;19907;-69
2022/09/24 02:00:10;;;;;;;;;;;12.90;99.90;;;;;;5108475;27;19918;-69
2022/09/24 02:02:39;;;;;;;;;;;12.90;99.90;;;;;;5112571;27;19959;-68
2022/09/24 02:05:14;;;;;;;;;;;13.00;99.90;;;;;;5107672;28;19911;-69
2022/09/24 02:07:59;;;;;;;;;;;13.00;99.90;;;;;;5091721;27;19908;-68
2022/09/24 02:10:28;;;;;;;;;;;13.00;99.90;;;;;;5111282;28;19908;-69
2022/09/24 02:12:57;;;;;;;;;;;13.00;99.90;;;;;;5108766;28;19949;-68
2022/09/24 02:15:33;;;;;;;;;;;13.00;99.90;;;;;;5109473;28;19911;-68
2022/09/24 02:18:01;;;;;;;;;;;13.10;99.90;;;;;;5090088;28;19967;-69
2022/09/24 02:20:28;;;;;;;;;;;13.00;99.90;;;;;;5108160;27;19915;-68
2022/09/24 02:22:54;;;;;;;;;;;13.10;99.90;;;;;;5092967;28;19918;-68
2022/09/24 02:25:23;;;;;;;;;;;13.00;99.90;;;;;;5102480;27;20366;-69
2022/09/24 02:27:48;;;;;;;;;;;12.90;99.90;;;;;;5111180;27;19908;-68
2022/09/24 02:30:14;;;;;;;;;;;12.80;99.90;;;;;;5087867;28;19922;-69
2022/09/24 02:32:41;;;;;;;;;;;12.70;99.90;;;;;;5102573;28;19907;-68
2022/09/24 02:35:08;;;;;;;;;;;12.60;99.90;;;;;;5098627;28;19999;-69
2022/09/24 02:37:41;;;;;;;;;;;12.60;99.90;;;;;;5106822;28;19972;-68
2022/09/24 02:40:08;;;;;;;;;;;12.50;99.90;;;;;;5108144;27;19908;-68
2022/09/24 02:42:33;;;;;;;;;;;12.40;99.90;;;;;;5109832;27;19931;-69
2022/09/24 02:44:59;;;;;;;;;;;12.40;99.90;;;;;;5099752;27;19911;-68
2022/09/24 02:47:25;;;;;;;;;;;12.40;99.90;;;;;;5087348;28;20370;-68
2022/09/24 02:49:51;;;;;;;;;;;12.30;99.90;;;;;;5108694;28;19915;-68
2022/09/24 02:52:17;;;;;;;;;;;12.30;99.90;;;;;;5116760;27;20347;-68
2022/09/24 02:54:43;;;;;;;;;;;12.30;99.90;;;;;;5110800;27;19964;-68
2022/09/24 02:57:09;;;;;;;;;;;12.30;99.90;;;;;;5093848;28;19908;-68
2022/09/24 02:59:35;;;;;;;;;;;12.20;99.90;;;;;;5106013;27;19999;-69
2022/09/24 03:02:00;;;;;;;;;;;12.20;99.90;;;;;;5091113;28;19920;-68
2022/09/24 03:04:27;;;;;;;;;;;12.20;99.90;;;;;;5109185;28;19912;-68
2022/09/24 03:06:53;;;;;;;;;;;12.30;99.90;;;;;;5113509;27;19914;-69
2022/09/24 03:09:18;;;;;;;;;;;12.40;99.90;;;;;;5101448;28;20321;-68
2022/09/24 03:11:45;;;;;;;;;;;12.60;99.90;;;;;;5093495;28;19984;-70
2022/09/24 03:14:10;;;;;;;;;;;12.70;99.90;;;;;;5105742;28;20420;-68
2022/09/24 03:16:36;;;;;;;;;;;12.70;99.90;;;;;;5113293;27;19911;-68
2022/09/24 03:19:02;;;;;;;;;;;12.80;99.90;;;;;;5110287;27;19908;-68
2022/09/24 03:21:27;;;;;;;;;;;12.80;99.90;;;;;;5114430;28;19916;-68
2022/09/24 03:23:53;;;;;;;;;;;12.70;99.90;;;;;;5100641;27;20006;-68
2022/09/24 03:26:18;;;;;;;;;;;12.70;99.90;;;;;;5113171;27;19908;-69
2022/09/24 03:28:44;;;;;;;;;;;12.60;99.90;;;;;;5087780;28;19908;-68
2022/09/24 03:31:10;;;;;;;;;;;12.50;99.90;;;;;;5108280;27;20275;-69
2022/09/24 03:33:37;;;;;;;;;;;12.50;99.90;;;;;;5121525;27;20040;-69
2022/09/24 03:36:02;;;;;;;;;;;12.40;99.90;;;;;;5096528;28;19907;-68
2022/09/24 03:38:28;;;;;;;;;;;12.40;99.90;;;;;;5087862;27;20023;-69
2022/09/24 03:40:54;;;;;;;;;;;12.40;99.90;;;;;;5108591;28;19920;-69
2022/09/24 03:43:20;;;;;;;;;;;12.40;99.90;;;;;;5107329;28;20386;-69
2022/09/24 03:45:45;;;;;;;;;;;12.40;99.90;;;;;;5094737;28;19915;-69
2022/09/24 03:48:11;;;;;;;;;;;12.50;99.90;;;;;;5089974;28;19934;-69
2022/09/24 03:50:37;;;;;;;;;;;12.50;99.90;;;;;;5108457;28;19973;-68
2022/09/24 03:53:03;;;;;;;;;;;12.60;99.90;;;;;;5105366;28;19965;-68
2022/09/24 03:55:28;;;;;;;;;;;12.60;99.90;;;;;;5103211;28;20377;-68
2022/09/24 03:57:54;;;;;;;;;;;12.50;99.90;;;;;;5107256;28;19908;-68
2022/09/24 04:00:19;;;;;;;;;;;12.50;99.90;;;;;;5107703;28;19908;-68
2022/09/24 04:02:45;;;;;;;;;;;12.50;99.90;;;;;;5104210;28;19912;-67
2022/09/24 04:05:10;;;;;;;;;;;12.40;99.90;;;;;;5105181;28;19912;-68
2022/09/24 04:07:36;;;;;;;;;;;12.40;99.90;;;;;;5104052;28;19908;-68
2022/09/24 04:10:02;;;;;;;;;;;12.30;99.90;;;;;;5110752;28;20444;-67
2022/09/24 04:12:28;;;;;;;;;;;12.30;99.90;;;;;;5103817;28;19968;-67
2022/09/24 04:14:54;;;;;;;;;;;12.30;99.90;;;;;;5112382;28;19908;-67
2022/09/24 04:17:19;;;;;;;;;;;12.30;99.90;;;;;;5105594;28;19914;-68
2022/09/24 04:19:45;;;;;;;;;;;12.20;99.90;;;;;;5113189;28;20342;-68
2022/09/24 04:22:10;;;;;;;;;;;12.20;99.90;;;;;;5110325;28;20016;-68
2022/09/24 04:24:36;;;;;;;;;;;12.20;99.90;;;;;;5109302;28;19961;-68
2022/09/24 04:27:02;;;;;;;;;;;12.20;99.90;;;;;;5112720;28;19978;-68
2022/09/24 04:29:27;;;;;;;;;;;12.10;99.90;;;;;;5090237;28;19912;-68
2022/09/24 04:31:53;;;;;;;;;;;12.10;99.90;;;;;;5080053;28;19916;-68
2022/09/24 04:34:19;;;;;;;;;;;12.10;99.90;;;;;;5109762;28;19908;-68
2022/09/24 04:36:45;;;;;;;;;;;12.20;99.90;;;;;;5110576;28;19915;-68
2022/09/24 04:39:10;;;;;;;;;;;12.10;99.90;;;;;;5113243;28;19908;-68
2022/09/24 04:41:36;;;;;;;;;;;12.10;99.90;;;;;;5112151;28;19928;-68
2022/09/24 04:44:04;;;;;;;;;;;12.10;99.90;;;;;;5106181;28;19907;-67
2022/09/24 04:46:32;;;;;;;;;;;12.00;99.90;;;;;;5108231;28;19911;-68
2022/09/24 04:48:57;;;;;;;;;;;12.00;99.90;;;;;;5114624;27;19927;-68
2022/09/24 04:51:23;;;;;;;;;;;12.00;99.90;;;;;;5115410;28;19915;-68
2022/09/24 04:53:49;;;;;;;;;;;12.00;99.90;;;;;;5111128;28;19908;-68
2022/09/24 04:56:15;;;;;;;;;;;11.90;99.90;;;;;;5108399;28;19907;-68
2022/09/24 04:58:40;;;;;;;;;;;12.00;99.90;;;;;;5107270;28;20252;-68
2022/09/24 05:01:06;;;;;;;;;;;12.00;99.90;;;;;;5108158;28;20010;-67
2022/09/24 05:03:32;;;;;;;;;;;12.00;99.90;;;;;;5111683;28;19907;-67
2022/09/24 05:05:57;;;;;;;;;;;12.00;99.90;;;;;;5105107;28;19912;-67
2022/09/24 05:08:23;;;;;;;;;;;12.00;99.90;;;;;;5107336;28;20490;-67
2022/09/24 05:10:48;;;;;;;;;;;12.00;99.90;;;;;;5108149;27;20363;-67
2022/09/24 05:13:14;;;;;;;;;;;12.00;99.90;;;;;;5106572;28;20003;-67
2022/09/24 05:15:39;;;;;;;;;;;12.00;99.90;;;;;;5085290;28;19908;-67
2022/09/24 05:18:05;;;;;;;;;;;12.00;99.90;;;;;;5114774;27;19919;-68
2022/09/24 05:20:31;;;;;;;;;;;11.90;99.90;;;;;;5109531;27;19912;-67
2022/09/24 05:22:56;;;;;;;;;;;11.80;99.90;;;;;;5108148;27;19912;-68
2022/09/24 05:25:22;;;;;;;;;;;11.70;99.90;;;;;;5092982;28;20237;-68
2022/09/24 05:27:52;;;;;;;;;;;11.70;99.90;;;;;;5119061;27;19919;-68
2022/09/24 05:30:18;;;;;;;;;;;11.60;99.90;;;;;;5112887;27;19922;-68
2022/09/24 05:32:44;;;;;;;;;;;11.60;99.90;;;;;;5109991;27;19957;-68
2022/09/24 05:35:09;;;;;;;;;;;11.50;99.90;;;;;;5102065;28;19908;-68
2022/09/24 05:37:35;;;;;;;;;;;11.60;99.90;;;;;;5104987;27;19907;-67
2022/09/24 05:40:46;;;;;;;;;;;11.50;99.90;;;;;;5096518;27;20272;-67
2022/09/24 05:42:48;;;;;;;;;;;11.50;99.90;;;;;;5117462;27;19928;-68
2022/09/24 05:45:16;;;;;;;;;;;11.50;99.90;;;;;;5096950;27;19915;-68
2022/09/24 05:47:42;;;;;;;;;;;11.50;99.90;;;;;;5107263;28;19912;-68
2022/09/24 05:50:08;;;;;;;;;;;11.40;99.90;;;;;;5120974;27;19998;-68
2022/09/24 05:52:33;;;;;;;;;;;11.40;99.90;;;;;;5096444;27;20435;-67
2022/09/24 05:54:59;;;;;;;;;;;11.30;99.90;;;;;;5107860;27;19940;-67
2022/09/24 05:57:24;;;;;;;;;;;11.30;99.90;;;;;;5114380;28;19915;-67
2022/09/24 05:59:52;;;;;;;;;;;11.40;99.90;;;;;;5110533;27;19908;-67
2022/09/24 06:02:17;;;;;;;;;;;11.40;99.90;;;;;;5117914;27;19930;-68
2022/09/24 06:04:43;;;;;;;;;;;11.50;99.90;;;;;;5120058;27;20289;-67
2022/09/24 06:07:09;;;;;;;;;;;11.50;99.90;;;;;;5107443;28;19908;-68
2022/09/24 06:09:35;;;;;;;;;;;11.60;99.90;;;;;;5096786;27;19991;-68
2022/09/24 06:12:01;;;;;;;;;;;11.60;99.90;;;;;;5106660;28;19962;-68
2022/09/24 06:14:27;;;;;;;;;;;11.80;99.90;;;;;;5105188;27;19912;-68
2022/09/24 06:16:53;;;;;;;;;;;11.80;99.90;;;;;;5100515;28;20252;-68
2022/09/24 06:19:18;;;;;;;;;;;11.90;99.90;;;;;;5113167;27;19919;-68
2022/09/24 06:21:44;;;;;;;;;;;11.90;99.90;;;;;;5097949;28;19912;-68
2022/09/24 06:24:10;;;;;;;;;;;12.00;99.90;;;;;;5103363;28;19933;-68
2022/09/24 06:26:35;;;;;;;;;;;12.10;99.90;;;;;;5089800;27;19931;-68
2022/09/24 06:29:01;;;;;;;;;;;12.20;99.90;;;;;;5123525;27;19916;-67
2022/09/24 06:31:26;;;;;;;;;;;12.20;99.90;;;;;;5120625;27;19918;-68
2022/09/24 06:33:52;;;;;;;;;;;12.30;99.90;;;;;;5118767;27;20480;-68
2022/09/24 06:36:17;;;;;;;;;;;12.30;99.90;;;;;;5086742;28;20312;-68
2022/09/24 06:38:44;;;;;;;;;;;12.40;99.90;;;;;;5110344;27;19964;-68
2022/09/24 06:41:09;;;;;;;;;;;12.50;99.90;;;;;;5115536;27;20354;-68
2022/09/24 06:43:35;;;;;;;;;;;12.60;99.90;;;;;;5121591;27;19954;-68
2022/09/24 06:46:00;;;;;;;;;;;12.60;99.90;;;;;;5111443;28;19908;-68
2022/09/24 06:48:26;;;;;;;;;;;12.70;99.90;;;;;;5087294;28;19940;-68
2022/09/24 06:50:53;;;;;;;;;;;12.80;99.90;;;;;;5113179;27;20342;-68
2022/09/24 06:53:19;;;;;;;;;;;12.90;99.90;;;;;;5109846;27;19990;-68
2022/09/24 06:55:45;;;;;;;;;;;13.00;99.90;;;;;;5118576;27;19994;-68
2022/09/24 06:58:11;;;;;;;;;;;13.20;99.90;;;;;;5117943;27;19914;-68
2022/09/24 07:00:37;;;;;;;;;;;13.30;99.90;;;;;;5115020;27;20274;-68
2022/09/24 07:03:03;;;;;;;;;;;13.40;99.90;;;;;;5109847;27;19919;-69
2022/09/24 07:05:29;;;;;;;;;;;13.40;99.90;;;;;;5104089;27;19924;-69
2022/09/24 07:07:54;;;;;;;;;;;13.50;99.90;;;;;;5113393;27;19912;-69
2022/09/24 07:10:20;;;;;;;;;;;13.50;99.90;;;;;;5114464;27;19918;-69
2022/09/24 07:12:45;;;;;;;;;;;13.50;99.90;;;;;;5109172;27;19919;-66
2022/09/24 07:15:11;;;;;;;;;;;13.50;99.90;;;;;;5080215;28;19947;-65
2022/09/24 07:17:37;;;;;;;;;;;13.60;99.90;;;;;;5100249;28;20006;-65
2022/09/24 07:20:03;;;;;;;;;;;13.70;99.90;;;;;;5082864;28;20283;-66
2022/09/24 07:22:28;;;;;;;;;;;13.80;99.90;;;;;;5123359;27;20294;-66
2022/09/24 07:24:54;;;;;;;;;;;14.00;99.90;;;;;;5093967;28;19912;-66
2022/09/24 07:27:22;;;;;;;;;;;13.90;99.90;;;;;;5102116;28;19912;-65
2022/09/24 07:29:48;;;;;;;;;;;14.00;99.90;;;;;;5110282;28;19927;-66
2022/09/24 07:32:16;;;;;;;;;;;14.20;99.90;;;;;;5108445;27;20416;-66
2022/09/24 07:34:42;;;;;;;;;;;14.20;99.90;;;;;;5101274;28;19912;-66
2022/09/24 07:37:07;;;;;;;;;;;14.30;99.90;;;;;;5085544;28;20274;-65
2022/09/24 07:39:33;;;;;;;;;;;14.60;99.90;;;;;;5111842;27;20343;-65
2022/09/24 07:42:00;;;;;;;;;;;14.60;99.90;;;;;;5108721;27;19923;-65
2022/09/24 07:44:27;;;;;;;;;;;14.60;99.90;;;;;;5090798;28;20333;-65
2022/09/24 07:46:54;;;;;;;;;;;14.90;99.90;;;;;;5111133;28;19908;-65
2022/09/24 07:49:19;;;;;;;;;;;14.90;99.90;;;;;;5104803;28;19962;-65
2022/09/24 07:51:45;;;;;;;;;;;15.00;99.90;;;;;;5108082;28;19947;-65
2022/09/24 07:54:11;;;;;;;;;;;15.30;99.90;;;;;;5108400;28;19915;-68
2022/09/24 07:56:37;;;;;;;;;;;15.50;99.90;;;;;;5112901;28;19939;-68
2022/09/24 07:59:05;;;;;;;;;;;15.70;99.90;;;;;;5101516;28;19923;-68
2022/09/24 08:01:31;;;;;;;;;;;15.70;99.90;;;;;;5097609;28;19923;-65
2022/09/24 08:03:58;;;;;;;;;;;15.90;99.90;;;;;;5094000;28;20791;-63
2022/09/24 08:06:24;;;;;;;;;;;16.10;99.90;;;;;;5088448;28;20409;-68
2022/09/24 08:08:51;;;;;;;;;;;16.30;99.90;;;;;;5094911;28;19908;-69
2022/09/24 08:11:17;;;;;;;;;;;16.50;99.90;;;;;;5108609;28;19943;-69
2022/09/24 08:13:44;;;;;;;;;;;16.90;99.90;;;;;;5114205;28;20339;-67
2022/09/24 08:16:09;;;;;;;;;;;16.80;99.90;;;;;;5104418;28;20049;-66
2022/09/24 08:18:35;;;;;;;;;;;17.00;99.90;;;;;;5113359;28;19990;-67
2022/09/24 08:21:08;;;;;;;;;;;17.20;99.90;;;;;;5113040;28;19907;-67
2022/09/24 08:23:33;;;;;;;;;;;17.20;99.90;;;;;;5106769;28;20268;-64
2022/09/24 08:25:59;;;;;;;;;;;17.50;99.90;;;;;;5083787;28;19915;-64
2022/09/24 08:28:25;;;;;;;;;;;17.80;99.90;;;;;;5111194;27;19930;-63
2022/09/24 08:30:51;;;;;;;;;;;18.00;99.90;;;;;;5111639;27;19912;-63
2022/09/24 08:33:16;;;;;;;;;;;18.20;99.90;;;;;;5101403;28;19961;-63
2022/09/24 08:35:42;;;;;;;;;;;17.90;99.90;;;;;;5102911;28;20363;-63
2022/09/24 08:38:10;;;;;;;;;;;17.90;99.90;;;;;;5109556;27;20367;-63
2022/09/24 08:40:38;;;;;;;;;;;18.00;99.90;;;;;;5110035;28;20007;-63
2022/09/24 08:43:15;;;;;;;;;;;18.50;99.90;;;;;;5109483;28;20610;-64
2022/09/24 08:48:35;;;;;;;;;;;18.80;99.90;;;;;;5109102;27;20330;-64
2022/09/24 08:51:03;;;;;;;;;;;18.90;99.90;;;;;;5109541;28;19911;-64
2022/09/24 08:53:31;;;;;;;;;;;19.00;99.90;;;;;;5110512;27;19907;-64
2022/09/24 08:55:58;;;;;;;;;;;18.90;99.90;;;;;;5116157;27;19911;-64
2022/09/24 08:58:23;;;;;;;;;;;18.60;99.90;;;;;;5105897;28;19912;-64
2022/09/24 09:00:53;;;;;;;;;;;18.50;99.90;;;;;;5114863;27;19908;-64
2022/09/24 09:03:28;;;;;;;;;;;18.40;99.90;;;;;;5099522;28;20271;-64
2022/09/24 09:05:57;;;;;;;;;;;18.20;99.90;;;;;;5106639;27;19908;-64
2022/09/24 09:08:26;;;;;;;;;;;18.00;99.90;;;;;;5106109;27;20378;-64
2022/09/24 09:10:55;;;;;;;;;;;18.00;99.90;;;;;;5118432;27;19942;-64
2022/09/24 09:13:44;;;;;;;;;;;18.40;99.90;;;;;;5096013;28;19919;-63
2022/09/24 09:16:13;;;;;;;;;;;18.30;99.90;;;;;;5101582;27;19912;-64
2022/09/24 09:18:40;;;;;;;;;;;18.50;99.90;;;;;;5086634;28;20329;-64
2022/09/24 09:21:25;;;;;;;;;;;18.50;99.90;;;;;;5111171;27;19908;-64
2022/09/24 09:23:51;;;;;;;;;;;19.00;99.90;;;;;;5109478;27;19946;-64
2022/09/24 09:26:19;;;;;;;;;;;19.40;99.90;;;;;;5108011;28;20607;-63
2022/09/24 09:28:45;;;;;;;;;;;19.40;99.90;;;;;;5111625;27;19915;-64
2022/09/24 09:31:32;;;;;;;;;;;19.50;99.90;;;;;;5116484;27;19908;-64
2022/09/24 09:34:15;;;;;;;;;;;18.90;99.90;;;;;;5110750;27;19980;-64
2022/09/24 09:36:44;;;;;;;;;;;18.50;99.90;;;;;;5109303;27;19908;-64
2022/09/24 09:39:28;;;;;;;;;;;18.20;99.90;;;;;;5091603;28;19927;-63
2022/09/24 09:42:02;;;;;;;;;;;18.20;99.90;;;;;;5110645;27;19931;-64
2022/09/24 09:44:28;;;;;;;;;;;18.10;99.90;;;;;;5103138;27;19922;-64
2022/09/24 09:47:00;;;;;;;;;;;17.90;99.90;;;;;;5099724;27;19922;-64
2022/09/24 09:49:28;;;;;;;;;;;17.90;99.90;;;;;;5085837;28;19912;-64
2022/09/24 09:51:55;;;;;;;;;;;18.00;99.90;;;;;;5104708;28;19923;-64
2022/09/24 09:54:20;;;;;;;;;;;18.10;99.90;;;;;;5091394;28;19908;-64
2022/09/24 09:56:47;;;;;;;;;;;17.70;99.90;;;;;;5108925;28;20298;-64
2022/09/24 09:59:20;;;;;;;;;;;17.70;99.90;;;;;;5105599;28;19914;-64
2022/09/24 10:01:54;;;;;;;;;;;18.10;99.90;;;;;;5106394;28;19915;-64
2022/09/24 10:04:31;;;;;;;;;;;18.10;99.90;;;;;;5107651;27;19987;-64
2022/09/24 10:07:09;;;;;;;;;;;18.00;99.90;;;;;;5106492;27;19918;-64
2022/09/24 10:09:35;;;;;;;;;;;18.20;99.90;;;;;;5106991;27;19914;-64
2022/09/24 10:12:21;;;;;;;;;;;17.90;99.90;;;;;;5100453;28;19917;-64
2022/09/24 10:14:56;;;;;;;;;;;17.90;99.90;;;;;;5110893;27;19968;-64
2022/09/24 10:17:24;;;;;;;;;;;18.10;99.90;;;;;;5112565;27;19913;-65
2022/09/24 10:19:49;;;;;;;;;;;18.30;99.90;;;;;;5110850;27;19920;-64
2022/09/24 10:22:20;;;;;;;;;;;18.20;99.90;;;;;;5104509;27;20417;-64
2022/09/24 10:24:46;;;;;;;;;;;18.50;99.90;;;;;;5106180;27;20037;-65
2022/09/24 10:27:31;;;;;;;;;;;18.60;99.90;;;;;;5099258;27;20002;-65
2022/09/24 10:32:41;;;;;;;;;;;19.00;99.90;;;;;;5116576;27;19941;-64
2022/09/24 10:35:21;;;;;;;;;;;18.90;99.90;;;;;;5111691;27;19908;-65
2022/09/24 10:37:51;;;;;;;;;;;19.00;99.90;;;;;;5104052;27;19908;-66
2022/09/24 10:40:21;;;;;;;;;;;18.80;99.90;;;;;;5090324;28;19908;-65
2022/09/24 10:42:53;;;;;;;;;;;19.10;99.90;;;;;;5107831;27;20386;-65
2022/09/24 10:45:19;;;;;;;;;;;19.10;99.90;;;;;;5094255;28;20401;-65
2022/09/24 10:47:50;;;;;;;;;;;19.20;99.90;;;;;;5096238;28;19915;-65
2022/09/24 10:50:19;;;;;;;;;;;18.80;99.90;;;;;;5104833;28;19918;-66
2022/09/24 10:53:05;;;;;;;;;;;18.50;99.90;;;;;;5097258;27;19920;-64
2022/09/24 10:55:46;;;;;;;;;;;17.80;99.90;;;;;;5105360;27;20446;-64
2022/09/24 10:58:32;;;;;;;;;;;18.10;99.90;;;;;;5109329;27;19957;-65
2022/09/24 11:01:18;;;;;;;;;;;18.30;99.90;;;;;;5106803;27;19933;-65
2022/09/24 11:03:43;;;;;;;;;;;18.50;99.90;;;;;;5049102;28;19912;-65
2022/09/24 11:06:09;;;;;;;;;;;18.70;99.90;;;;;;5107824;28;19911;-65
2022/09/24 11:08:43;;;;;;;;;;;18.50;99.90;;;;;;5100812;28;19908;-65
2022/09/24 11:11:17;;;;;;;;;;;18.60;99.90;;;;;;5101737;28;19923;-65
2022/09/24 11:13:54;;;;;;;;;;;18.60;99.90;;;;;;5105960;28;19951;-65
2022/09/24 11:16:21;;;;;;;;;;;18.60;99.90;;;;;;5084621;28;19908;-65
2022/09/24 11:18:56;;;;;;;;;;;18.60;99.90;;;;;;5080453;28;19961;-65
2022/09/24 11:21:30;;;;;;;;;;;19.10;99.90;;;;;;5090022;28;19922;-65
2022/09/24 11:24:05;;;;;;;;;;;19.50;99.90;;;;;;5101498;28;19908;-65
2022/09/24 11:26:31;;;;;;;;;;;19.40;99.90;;;;;;5101502;28;19912;-65
2022/09/24 11:28:56;;;;;;;;;;;19.50;99.90;;;;;;5101576;28;19909;-65
2022/09/24 11:31:25;;;;;;;;;;;19.40;99.90;;;;;;5098194;28;20374;-65
2022/09/24 11:34:04;;;;;;;;;;;19.70;99.90;;;;;;5102643;28;19957;-65
2022/09/24 11:36:32;;;;;;;;;;;19.10;99.90;;;;;;5106496;28;19921;-65
2022/09/24 11:39:16;;;;;;;;;;;18.70;99.90;;;;;;5079385;28;20406;-65
2022/09/24 11:41:42;;;;;;;;;;;18.70;99.90;;;;;;5103159;28;19946;-65
2022/09/24 11:44:10;;;;;;;;;;;18.20;99.90;;;;;;5101305;28;19911;-65
2022/09/24 11:46:44;;;;;;;;;;;18.30;99.90;;;;;;5102539;28;19976;-65
2022/09/24 11:49:09;;;;;;;;;;;18.20;99.90;;;;;;5102962;28;19919;-65
2022/09/24 11:51:35;;;;;;;;;;;18.60;99.90;;;;;;5104200;28;19908;-65
2022/09/24 11:54:05;;;;;;;;;;;18.40;99.90;;;;;;5100872;28;19956;-65
2022/09/24 11:56:37;;;;;;;;;;;18.60;99.90;;;;;;5100489;28;19954;-65
2022/09/24 11:59:24;;;;;;;;;;;18.70;99.90;;;;;;5083739;28;19918;-65
2022/09/24 12:01:55;;;;;;;;;;;18.70;99.90;;;;;;5105608;28;20286;-65
2022/09/24 12:04:26;;;;;;;;;;;18.70;99.90;;;;;;5103084;28;19972;-64
2022/09/24 12:06:53;;;;;;;;;;;18.40;99.90;;;;;;5106985;28;20007;-65
2022/09/24 12:09:21;;;;;;;;;;;18.30;99.90;;;;;;5106630;27;19944;-65
2022/09/24 12:11:53;;;;;;;;;;;18.50;99.90;;;;;;5103279;28;20320;-65
2022/09/24 12:14:30;;;;;;;;;;;18.70;99.90;;;;;;5083828;28;19908;-65
2022/09/24 12:16:59;;;;;;;;;;;18.50;99.90;;;;;;5104912;28;19998;-64
2022/09/24 12:19:45;;;;;;;;;;;18.40;99.90;;;;;;5110759;27;20644;-64
2022/09/24 12:22:11;;;;;;;;;;;18.70;99.90;;;;;;5102038;28;19959;-64
2022/09/24 12:24:40;;;;;;;;;;;18.70;99.90;;;;;;5105815;28;19958;-64
2022/09/24 12:27:09;;;;;;;;;;;18.50;99.90;;;;;;5108418;28;20320;-65
2022/09/24 12:35:45;;;;;;;;;;;18.60;99.90;;;;;;5092282;28;20374;-64
2022/09/24 12:38:16;;;;;;;;;;;18.10;99.90;;;;;;5104590;28;19912;-64
2022/09/24 12:40:56;;;;;;;;;;;17.90;99.90;;;;;;5106028;28;20696;-64
2022/09/24 12:43:26;;;;;;;;;;;17.60;99.90;;;;;;5107731;28;19964;-65
2022/09/24 12:45:53;;;;;;;;;;;17.70;99.90;;;;;;5107765;27;19922;-64
2022/09/24 12:48:20;;;;;;;;;;;17.20;99.90;;;;;;5105469;27;19912;-64
2022/09/24 12:50:54;;;;;;;;;;;17.10;99.90;;;;;;5106210;27;19995;-64
2022/09/24 12:53:23;;;;;;;;;;;17.10;99.90;;;;;;5105046;28;19954;-64
2022/09/24 12:55:49;;;;;;;;;;;17.10;99.90;;;;;;5077997;28;19938;-64
2022/09/24 12:58:33;;;;;;;;;;;17.10;99.90;;;;;;5083235;28;20010;-64
2022/09/24 13:01:10;;;;;;;;;;;16.80;99.90;;;;;;5095405;28;20251;-64
2022/09/24 13:03:37;;;;;;;;;;;17.00;99.90;;;;;;5087258;28;19920;-64
2022/09/24 13:06:23;;;;;;;;;;;17.20;99.90;;;;;;5103168;27;19912;-64
2022/09/24 13:08:49;;;;;;;;;;;17.00;99.90;;;;;;5075966;27;19924;-64
2022/09/24 13:16:54;;;;;;;;;;;16.90;99.90;;;;;;5608707;22;20323;-88
2022/09/24 13:19:20;;;;;;;;;;;16.90;99.90;;;;;;5048956;28;19925;-88
2022/09/24 13:21:53;;;;;;;;;;;16.70;99.90;;;;;;5048784;28;19931;-88
2022/09/24 13:24:26;;;;;;;;;;;16.80;99.90;;;;;;5032249;28;19913;-89
2022/09/24 13:26:51;;;;;;;;;;;17.00;99.90;;;;;;5045616;28;19924;-88
2022/09/24 13:29:24;;;;;;;;;;;16.90;99.90;;;;;;5030137;28;19996;-89
2022/09/24 13:31:56;;;;;;;;;;;16.80;99.90;;;;;;5030102;28;19908;-89
2022/09/24 13:34:24;;;;;;;;;;;16.70;99.90;;;;;;5030831;28;19912;-89
2022/09/24 13:36:59;;;;;;;;;;;16.60;99.90;;;;;;5031859;28;20245;-89
2022/09/24 13:39:25;;;;;;;;;;;16.50;99.90;;;;;;5048742;28;19923;-91
2022/09/24 13:42:01;;;;;;;;;;;16.40;99.90;;;;;;5031929;28;19925;-91
2022/09/24 13:44:32;;;;;;;;;;;16.50;99.90;;;;;;5051110;28;20441;-91
2022/09/24 13:47:00;;;;;;;;;;;16.60;99.90;;;;;;5054963;28;20103;-91
2022/09/24 13:49:26;;;;;;;;;;;16.60;99.90;;;;;;5034032;28;19916;-91
2022/09/24 13:51:56;;;;;;;;;;;16.60;99.90;;;;;;5033010;28;19917;-91
2022/09/24 13:54:33;;;;;;;;;;;16.50;99.90;;;;;;5043792;28;19924;-91
2022/09/24 13:57:09;;;;;;;;;;;16.40;99.90;;;;;;5035699;28;19912;-91
2022/09/24 13:59:34;;;;;;;;;;;16.50;99.90;;;;;;5033486;28;20043;-91
2022/09/24 14:02:00;;;;;;;;;;;16.60;99.90;;;;;;5049217;28;20487;-91
2022/09/24 14:04:26;;;;;;;;;;;16.80;99.90;;;;;;5032113;28;20031;-90
2022/09/24 14:06:53;;;;;;;;;;;17.00;99.90;;;;;;5033038;28;20016;-90
2022/09/24 14:09:32;;;;;;;;;;;17.40;99.90;;;;;;5027314;28;19928;-90
2022/09/24 14:12:02;;;;;;;;;;;17.40;99.90;;;;;;5044675;28;19935;-90
2022/09/24 14:14:28;;;;;;;;;;;17.00;99.90;;;;;;5031805;28;19968;-88
2022/09/24 14:17:07;;;;;;;;;;;17.00;99.90;;;;;;5031881;28;19913;-88
2022/09/24 14:19:45;;;;;;;;;;;16.80;99.90;;;;;;5039110;28;19975;-90
2022/09/24 14:22:15;;;;;;;;;;;16.40;99.90;;;;;;5032311;28;19920;-90
2022/09/24 14:25:00;;;;;;;;;;;16.50;99.90;;;;;;5035036;28;19999;-90
2022/09/24 14:27:27;;;;;;;;;;;16.80;99.90;;;;;;5031234;28;20012;-90
2022/09/24 14:29:56;;;;;;;;;;;16.70;99.90;;;;;;5046212;28;19928;-90
2022/09/24 14:32:25;;;;;;;;;;;17.10;99.90;;;;;;5050483;28;19916;-90
2022/09/24 14:34:53;;;;;;;;;;;17.30;99.90;;;;;;5050981;28;20257;-90
2022/09/24 14:37:21;;;;;;;;;;;17.30;99.90;;;;;;5033247;28;19916;-90
2022/09/24 14:39:48;;;;;;;;;;;17.00;99.90;;;;;;5033382;28;19917;-90
2022/09/24 14:42:26;;;;;;;;;;;16.60;99.90;;;;;;5032824;28;19999;-90
2022/09/24 14:44:51;;;;;;;;;;;16.50;99.90;;;;;;5028567;28;19943;-90